Terminal Aerodrome Forecast
Issued by NWS

Home | Current Version | Previous Version | Text Only | Print | Product List | Glossary On
Versions: 1 2 3 4 5 6 7 8 9 10 11 12 13 14 15 16
000
FTUS45 KFGZ 130100 AAA
TAFSEZ
TAF AMD
KSEZ 130156Z 1302/1324 08010KT P6SM -SHRA SCT080 BKN110
      TEMPO 1302/1303 VRB15G25KT 5SM -TSRA OVC080CB
     FM130300 04006KT P6SM FEW080 SCT110
     FM131700 10009KT P6SM BKN060 BKN080
      TEMPO 1319/1323 VRB20G35KT 5SM TSRA BKN050CB OVC060=

USA.gov is the U.S. government's official web portal to all federal, state and local government web resources and services.